OIBS  Sirri Island  Airport

Iran

Add Bookmark
ICAO OIBS
IATA SXI
Type Airport
Status Operational
Latitude
25° 54' 32" N
25.908899
Longitude
54° 32' 21" E
54.539398
Local (DST + 5) UTC (GMT + 4)
Jul 28, 2015 07:57 Jul 28, 2015 03:27
Sunrise-Sunset Local UTC
Begin Civil Twilight 05:49 01:19
Sunrise 06:14 01:44
Sunset 07:41 15:11
End Civil Twilight 08:06 15:36
VFR
VFR
MVFR
MVFR
IFR
IFR
LIFR
LIFR
Unknown
Unavailable

Current Weather

METAR Observed
OIBS 280300Z 13016KT 7000 NSC 34/30 Q0998 Tue, Jul 28, 2015 @ 03:00 UTC
(27 Minutes ago)
Wind Visibility Conditions
130° at 16 knots (30 kph) 7,001 m
  • No significant weather
Temperatures Readings Precipitation
Current Temp
34°C
93°F
Dewpoint
30°C
86°F
Heat Index
52°C
125°
Humidity 80%
Altimeter 29.47" Hg
Sea Level Pressure 998 mb
Field Elevation
14 m
46 ft
None Recorded

Additional weather within a 92.6km radius of OIBS

Map ICAO Location
OIBA 49.4km E (094°)
OIBL 74.8km N/NE (022°)
OIBK 88.5km NW (321°)
VFR
VFR
MVFR
MVFR
IFR
IFR
LIFR
LIFR
Unknown
Unavailable
-
-

CheckWX.com is intended as a tool to help pilots better visualize weather data. It is not intended as a substitute for an official weather briefing obtained from a Flight Service Station. CheckWX.com does not meet the FAA requirements for an official pre-flight weather briefing. Therefore, it's important that pilots still call and obtain an official FSS pre-flight weather briefing.

© 2007-2015 CheckWX.com
03:27:15 UTC